FRR weather

Front Royal Warren County Airport
Front Royal, Virginia, United States

Public forecast

Using degrees Fahrenheit for public forecast. Weather courtesy of forecast.io.

METAR (pilot weather report)

Retrieved 2019/07/21 08:35 UTC (0 seconds ago):

KFRR 210835Z AUTO 19005KT 10SM CLR 23/22 A2990 RMK AO1

TAF (pilot weather forecast)

Closest forecast is Eastern WV Regional Airport/Shepherd Field, 31.7 nm (58.6 km) NNE. Retrieved 2019/07/21 06:24 UTC (2 hours ago):

TAF KMRB 210520Z 2106/2206 VRB03KT P6SM BKN130 FM211300 29008G16KT P6SM SCT200 FM211900 26008G16KT P6SM SCT050 SCT200